Airport Name : Montgomery Rgnl

Other Name : Montgomery Rgnl

ICAO : KMGM

IATA : MGM

FAA : MGM

Latitude : 32.300639

Longitude : -86.393972

Country : United States

Local Date and Time : 22 Jan 2021 12:38

 

TAF (Terminal Aerodrome Forecast)

KMGM 221807Z 2218/2318 36005KT P6SM VCSH OVC006 FM230100 36005KT P6SM OVC010 FM230400 36002KT 2SM BR OVC005 FM231400 05007KT P6SM FEW050

 

METAR (METeorological Aerodrome Report)

KMGM 221802Z 35004KT 10SM OVC006 14/13 A2998 RMK AO2 CIG 003V009 T01390128

KMGM 221753Z 35003KT 10SM OVC004 14/13 A2999 RMK AO2 RAE1658 CIG 003V009 SLP153 P0000 60029 T01390128 10144 20122 50001

KMGM 221734Z 01004KT 10SM BKN004 OVC009 14/13 A3000 RMK AO2 RAE1658 CIG 003V007 P0000 T01440128

KMGM 221719Z 03003KT 4SM BR OVC005 14/13 A3000 RMK AO2 RAE1658 P0000 T01390128

KMGM 221653Z 36004KT 2SM -RA BR OVC003 14/13 A3001 RMK AO2 SLP162 P0002 T01390128

KMGM 221631Z 34004KT 2SM -RA BR OVC003 14/12 A3002 RMK AO2 P0001 T01390122

KMGM 221600Z 35004KT 2SM -RA BR BKN002 OVC021 13/12 A3001 RMK AO2 P0000 T01330122

KMGM 221553Z 33005KT 2SM -RA BR BKN005 BKN021 OVC028 13/12 A3002 RMK AO2 SLP164 P0007 T01330122

KMGM 221453Z 00000KT 2SM RA BR BKN005 BKN028 OVC095 13/12 A2998 RMK AO2 SLP152 P0005 60020 T01330122 52016

KMGM 221446Z 00000KT 2SM -RA BR BKN005 BKN028 OVC095 13/12 A2998 RMK AO2 P0004 T01330122

KMGM 221439Z 00000KT 5SM -RA BR SCT020 BKN028 OVC095 13/12 A2998 RMK AO2 P0004 T01330122

To Charter a Jet Click here.